sensor_id;sensor_type;location;lat;lon;timestamp;pressure;altitude;pressure_sealevel;temperature;humidity
37710;BME280;60223;34.854;-92.408;2022-09-01T00:02:17;100514.91;;;27.21;27.51
37710;BME280;60223;34.854;-92.408;2022-09-01T00:04:43;100518.18;;;28.60;25.73
37710;BME280;60223;34.854;-92.408;2022-09-01T00:07:09;100523.06;;;29.62;24.54
37710;BME280;60223;34.854;-92.408;2022-09-01T00:09:34;100525.84;;;30.02;24.52
37710;BME280;60223;34.854;-92.408;2022-09-01T00:11:57;100521.34;;;29.97;24.31
37710;BME280;60223;34.854;-92.408;2022-09-01T00:14:28;100521.32;;;30.35;24.49
37710;BME280;60223;34.854;-92.408;2022-09-01T00:16:50;100519.64;;;30.61;24.19
37710;BME280;60223;34.854;-92.408;2022-09-01T00:19:17;100513.62;;;30.95;23.82
37710;BME280;60223;34.854;-92.408;2022-09-01T00:21:43;100510.95;;;30.98;23.90
37710;BME280;60223;34.854;-92.408;2022-09-01T00:24:09;100509.47;;;31.32;24.01
37710;BME280;60223;34.854;-92.408;2022-09-01T00:26:34;100510.66;;;31.06;24.36
37710;BME280;60223;34.854;-92.408;2022-09-01T00:28:59;100512.89;;;30.86;24.76
37710;BME280;60223;34.854;-92.408;2022-09-01T00:31:23;100515.20;;;31.26;24.26
37710;BME280;60223;34.854;-92.408;2022-09-01T00:33:51;100514.83;;;31.30;24.53
37710;BME280;60223;34.854;-92.408;2022-09-01T00:36:15;100516.11;;;31.64;24.48
37710;BME280;60223;34.854;-92.408;2022-09-01T00:38:41;100514.66;;;31.08;25.03
37710;BME280;60223;34.854;-92.408;2022-09-01T00:41:07;100513.51;;;30.50;25.68
37710;BME280;60223;34.854;-92.408;2022-09-01T00:43:41;100511.32;;;30.77;25.44
37710;BME280;60223;34.854;-92.408;2022-09-01T00:45:59;100511.66;;;31.50;25.11
37710;BME280;60223;34.854;-92.408;2022-09-01T00:48:24;100514.08;;;31.61;25.14
37710;BME280;60223;34.854;-92.408;2022-09-01T00:50:50;100519.05;;;31.72;24.99
37710;BME280;60223;34.854;-92.408;2022-09-01T00:53:14;100519.06;;;31.21;25.29
37710;BME280;60223;34.854;-92.408;2022-09-01T00:55:41;100520.06;;;32.18;24.92
37710;BME280;60223;34.854;-92.408;2022-09-01T00:58:06;100522.78;;;32.08;24.60
37710;BME280;60223;34.854;-92.408;2022-09-01T01:00:34;100524.84;;;28.58;27.55
37710;BME280;60223;34.854;-92.408;2022-09-01T01:02:58;100519.20;;;25.77;30.25
37710;BME280;60223;34.854;-92.408;2022-09-01T01:05:21;100519.08;;;26.38;29.29
37710;BME280;60223;34.854;-92.408;2022-09-01T01:07:48;100521.73;;;25.70;30.07
37710;BME280;60223;34.854;-92.408;2022-09-01T01:10:16;100521.53;;;26.14;29.22
37710;BME280;60223;34.854;-92.408;2022-09-01T01:12:38;100522.20;;;26.54;28.49
37710;BME280;60223;34.854;-92.408;2022-09-01T01:15:06;100519.43;;;27.12;27.48
37710;BME280;60223;34.854;-92.408;2022-09-01T01:17:30;100519.80;;;24.46;29.95
37710;BME280;60223;34.854;-92.408;2022-09-01T01:19:56;100518.88;;;26.59;27.47
37710;BME280;60223;34.854;-92.408;2022-09-01T01:22:26;100522.91;;;26.57;27.21
37710;BME280;60223;34.854;-92.408;2022-09-01T01:24:48;100525.13;;;24.12;29.76
37710;BME280;60223;34.854;-92.408;2022-09-01T01:27:13;100528.35;;;23.10;30.72
37710;BME280;60223;34.854;-92.408;2022-09-01T01:29:38;100528.61;;;22.86;30.67
37710;BME280;60223;34.854;-92.408;2022-09-01T01:32:05;100536.03;;;23.65;29.89
37710;BME280;60223;34.854;-92.408;2022-09-01T01:34:29;100543.70;;;23.36;30.20
37710;BME280;60223;34.854;-92.408;2022-09-01T01:36:56;100554.04;;;23.48;29.91
37710;BME280;60223;34.854;-92.408;2022-09-01T01:39:24;100560.71;;;25.22;29.26
37710;BME280;60223;34.854;-92.408;2022-09-01T01:41:48;100562.55;;;28.39;26.08
37710;BME280;60223;34.854;-92.408;2022-09-01T01:44:14;100564.66;;;28.74;25.50
37710;BME280;60223;34.854;-92.408;2022-09-01T01:46:40;100569.40;;;29.31;25.11
37710;BME280;60223;34.854;-92.408;2022-09-01T01:49:03;100573.36;;;29.75;24.74
37710;BME280;60223;34.854;-92.408;2022-09-01T01:51:29;100578.71;;;29.51;24.66
37710;BME280;60223;34.854;-92.408;2022-09-01T01:54:03;100585.48;;;30.57;23.73
37710;BME280;60223;34.854;-92.408;2022-09-01T01:56:22;100589.23;;;31.05;23.59
37710;BME280;60223;34.854;-92.408;2022-09-01T01:58:46;100591.61;;;30.37;23.99
37710;BME280;60223;34.854;-92.408;2022-09-01T02:01:10;100591.35;;;30.54;24.30
37710;BME280;60223;34.854;-92.408;2022-09-01T02:03:41;100596.54;;;31.99;23.38
37710;BME280;60223;34.854;-92.408;2022-09-01T02:06:04;100602.14;;;31.27;23.91
37710;BME280;60223;34.854;-92.408;2022-09-01T02:08:29;100599.21;;;31.76;23.64
37710;BME280;60223;34.854;-92.408;2022-09-01T02:10:56;100601.04;;;31.28;23.75
37710;BME280;60223;34.854;-92.408;2022-09-01T02:13:22;100607.69;;;31.93;23.64
37710;BME280;60223;34.854;-92.408;2022-09-01T02:15:46;100613.83;;;32.05;23.58
37710;BME280;60223;34.854;-92.408;2022-09-01T02:18:12;100618.27;;;32.13;23.23
37710;BME280;60223;34.854;-92.408;2022-09-01T02:20:37;100623.30;;;31.85;23.78
37710;BME280;60223;34.854;-92.408;2022-09-01T02:23:01;100628.13;;;31.69;23.79
37710;BME280;60223;34.854;-92.408;2022-09-01T02:25:32;100633.39;;;32.11;23.75
37710;BME280;60223;34.854;-92.408;2022-09-01T02:27:54;100635.11;;;32.05;23.67
37710;BME280;60223;34.854;-92.408;2022-09-01T02:30:18;100637.58;;;31.65;23.92
37710;BME280;60223;34.854;-92.408;2022-09-01T02:32:45;100636.31;;;31.54;24.34
37710;BME280;60223;34.854;-92.408;2022-09-01T02:35:10;100639.83;;;31.86;23.91
37710;BME280;60223;34.854;-92.408;2022-09-01T02:37:37;100641.55;;;31.91;24.00
37710;BME280;60223;34.854;-92.408;2022-09-01T02:40:02;100642.72;;;32.04;24.19
37710;BME280;60223;34.854;-92.408;2022-09-01T02:42:27;100645.31;;;32.41;23.72
37710;BME280;60223;34.854;-92.408;2022-09-01T02:44:54;100643.39;;;32.17;24.07
37710;BME280;60223;34.854;-92.408;2022-09-01T02:47:19;100641.27;;;26.95;28.89
37710;BME280;60223;34.854;-92.408;2022-09-01T02:49:44;100636.48;;;25.53;30.15
37710;BME280;60223;34.854;-92.408;2022-09-01T02:52:10;100637.64;;;24.97;30.90
37710;BME280;60223;34.854;-92.408;2022-09-01T02:54:35;100637.14;;;25.63;29.77
37710;BME280;60223;34.854;-92.408;2022-09-01T02:56:59;100641.01;;;24.71;30.15
37710;BME280;60223;34.854;-92.408;2022-09-01T02:59:28;100644.66;;;25.41;29.31
37710;BME280;60223;34.854;-92.408;2022-09-01T03:01:52;100641.97;;;26.28;28.16
37710;BME280;60223;34.854;-92.408;2022-09-01T03:04:19;100645.85;;;25.90;28.19
37710;BME280;60223;34.854;-92.408;2022-09-01T03:06:43;100648.65;;;25.28;28.92
37710;BME280;60223;34.854;-92.408;2022-09-01T03:09:10;100644.76;;;26.71;27.22
37710;BME280;60223;34.854;-92.408;2022-09-01T03:11:36;100646.74;;;24.91;28.49
37710;BME280;60223;34.854;-92.408;2022-09-01T03:14:01;100645.87;;;25.97;27.55
37710;BME280;60223;34.854;-92.408;2022-09-01T03:16:24;100640.31;;;26.61;26.58
37710;BME280;60223;34.854;-92.408;2022-09-01T03:18:52;100645.11;;;25.74;27.49
37710;BME280;60223;34.854;-92.408;2022-09-01T03:21:17;100650.50;;;25.82;27.22
37710;BME280;60223;34.854;-92.408;2022-09-01T03:23:43;100647.72;;;25.61;27.46
37710;BME280;60223;34.854;-92.408;2022-09-01T03:26:09;100649.79;;;26.37;26.91
37710;BME280;60223;34.854;-92.408;2022-09-01T03:28:34;100648.37;;;24.22;28.22
37710;BME280;60223;34.854;-92.408;2022-09-01T03:31:00;100648.38;;;24.19;28.37
37710;BME280;60223;34.854;-92.408;2022-09-01T03:33:27;100650.13;;;22.52;30.72
37710;BME280;60223;34.854;-92.408;2022-09-01T03:35:51;100655.75;;;27.94;25.69
37710;BME280;60223;34.854;-92.408;2022-09-01T03:38:16;100656.57;;;28.07;25.61
37710;BME280;60223;34.854;-92.408;2022-09-01T03:40:43;100658.61;;;28.98;24.73
37710;BME280;60223;34.854;-92.408;2022-09-01T03:43:09;100661.11;;;29.13;24.65
37710;BME280;60223;34.854;-92.408;2022-09-01T03:45:33;100668.28;;;29.32;24.54
37710;BME280;60223;34.854;-92.408;2022-09-01T03:48:00;100667.81;;;29.97;23.93
37710;BME280;60223;34.854;-92.408;2022-09-01T03:50:27;100669.31;;;30.42;23.60
37710;BME280;60223;34.854;-92.408;2022-09-01T03:52:51;100672.49;;;30.89;23.07
37710;BME280;60223;34.854;-92.408;2022-09-01T03:55:16;100667.95;;;30.62;23.60
37710;BME280;60223;34.854;-92.408;2022-09-01T03:57:42;100672.21;;;30.56;23.50
37710;BME280;60223;34.854;-92.408;2022-09-01T04:00:08;100677.94;;;30.85;23.26
37710;BME280;60223;34.854;-92.408;2022-09-01T04:02:32;100681.92;;;30.89;23.42
37710;BME280;60223;34.854;-92.408;2022-09-01T04:04:57;100682.44;;;31.25;23.29
37710;BME280;60223;34.854;-92.408;2022-09-01T04:07:25;100679.92;;;31.08;23.29
37710;BME280;60223;34.854;-92.408;2022-09-01T04:09:50;100682.82;;;31.73;23.03
37710;BME280;60223;34.854;-92.408;2022-09-01T04:12:15;100679.93;;;31.55;23.17
37710;BME280;60223;34.854;-92.408;2022-09-01T04:14:41;100673.89;;;31.54;22.99
37710;BME280;60223;34.854;-92.408;2022-09-01T04:17:07;100679.55;;;31.32;23.40
37710;BME280;60223;34.854;-92.408;2022-09-01T04:19:36;100676.42;;;31.58;23.11
37710;BME280;60223;34.854;-92.408;2022-09-01T04:22:00;100678.51;;;31.40;23.30
37710;BME280;60223;34.854;-92.408;2022-09-01T04:24:24;100673.50;;;31.62;23.28
37710;BME280;60223;34.854;-92.408;2022-09-01T04:26:51;100682.34;;;31.31;23.48
37710;BME280;60223;34.854;-92.408;2022-09-01T04:29:15;100683.32;;;31.77;23.63
37710;BME280;60223;34.854;-92.408;2022-09-01T04:31:39;100680.84;;;31.59;23.63
37710;BME280;60223;34.854;-92.408;2022-09-01T04:34:07;100679.91;;;31.30;23.73
37710;BME280;60223;34.854;-92.408;2022-09-01T04:36:31;100679.24;;;31.34;23.82
37710;BME280;60223;34.854;-92.408;2022-09-01T04:38:59;100677.93;;;31.47;23.78
37710;BME280;60223;34.854;-92.408;2022-09-01T04:41:24;100679.91;;;32.15;23.30
37710;BME280;60223;34.854;-92.408;2022-09-01T04:43:48;100671.96;;;31.49;23.89
37710;BME280;60223;34.854;-92.408;2022-09-01T04:46:15;100669.61;;;31.89;23.67
37710;BME280;60223;34.854;-92.408;2022-09-01T04:48:40;100672.13;;;31.76;23.81
37710;BME280;60223;34.854;-92.408;2022-09-01T04:51:09;100669.90;;;31.62;23.97
37710;BME280;60223;34.854;-92.408;2022-09-01T04:53:31;100670.47;;;32.01;23.71
37710;BME280;60223;34.854;-92.408;2022-09-01T04:56:01;100664.76;;;31.62;24.07
37710;BME280;60223;34.854;-92.408;2022-09-01T04:58:22;100666.80;;;31.84;23.73
37710;BME280;60223;34.854;-92.408;2022-09-01T05:00:49;100670.95;;;32.15;23.73
37710;BME280;60223;34.854;-92.408;2022-09-01T05:03:14;100677.33;;;31.84;23.79
37710;BME280;60223;34.854;-92.408;2022-09-01T05:05:40;100680.03;;;32.07;23.85
37710;BME280;60223;34.854;-92.408;2022-09-01T05:08:05;100677.78;;;31.79;24.17
37710;BME280;60223;34.854;-92.408;2022-09-01T05:10:30;100678.31;;;31.80;24.20
37710;BME280;60223;34.854;-92.408;2022-09-01T05:12:56;100681.61;;;31.96;24.11
37710;BME280;60223;34.854;-92.408;2022-09-01T05:15:22;100681.54;;;31.94;24.19
37710;BME280;60223;34.854;-92.408;2022-09-01T05:17:44;100680.83;;;31.86;24.26
37710;BME280;60223;34.854;-92.408;2022-09-01T05:20:13;100678.96;;;31.68;24.29
37710;BME280;60223;34.854;-92.408;2022-09-01T05:22:38;100680.97;;;31.98;24.24
37710;BME280;60223;34.854;-92.408;2022-09-01T05:25:02;100682.15;;;31.89;24.38
37710;BME280;60223;34.854;-92.408;2022-09-01T05:27:30;100684.50;;;31.84;24.44
37710;BME280;60223;34.854;-92.408;2022-09-01T05:29:55;100686.19;;;31.92;24.45
37710;BME280;60223;34.854;-92.408;2022-09-01T05:32:21;100689.73;;;31.33;25.14
37710;BME280;60223;34.854;-92.408;2022-09-01T05:34:46;100690.00;;;23.75;32.09
37710;BME280;60223;34.854;-92.408;2022-09-01T05:37:10;100688.01;;;23.67;31.69
37710;BME280;60223;34.854;-92.408;2022-09-01T05:39:39;100688.40;;;24.39;30.96
37710;BME280;60223;34.854;-92.408;2022-09-01T05:42:03;100688.81;;;25.74;29.13
37710;BME280;60223;34.854;-92.408;2022-09-01T05:44:29;100691.71;;;24.72;30.14
37710;BME280;60223;34.854;-92.408;2022-09-01T05:46:57;100692.50;;;24.41;30.11
37710;BME280;60223;34.854;-92.408;2022-09-01T05:49:20;100694.06;;;24.65;29.59
37710;BME280;60223;34.854;-92.408;2022-09-01T05:51:48;100694.00;;;24.06;30.38
37710;BME280;60223;34.854;-92.408;2022-09-01T05:54:12;100697.80;;;24.45;29.60
37710;BME280;60223;34.854;-92.408;2022-09-01T05:56:37;100695.96;;;24.43;29.36
37710;BME280;60223;34.854;-92.408;2022-09-01T05:59:03;100695.34;;;23.33;29.88
37710;BME280;60223;34.854;-92.408;2022-09-01T06:01:29;100697.45;;;24.19;29.33
37710;BME280;60223;34.854;-92.408;2022-09-01T06:03:55;100700.27;;;22.75;30.33
37710;BME280;60223;34.854;-92.408;2022-09-01T06:06:17;100697.22;;;23.53;29.67
37710;BME280;60223;34.854;-92.408;2022-09-01T06:08:45;100700.96;;;23.25;29.84
37710;BME280;60223;34.854;-92.408;2022-09-01T06:11:10;100699.13;;;22.56;30.63
37710;BME280;60223;34.854;-92.408;2022-09-01T06:13:37;100702.30;;;23.40;29.58
37710;BME280;60223;34.854;-92.408;2022-09-01T06:16:02;100709.49;;;26.43;27.57
37710;BME280;60223;34.854;-92.408;2022-09-01T06:18:25;100704.93;;;27.88;25.95
37710;BME280;60223;34.854;-92.408;2022-09-01T06:20:53;100705.24;;;28.27;25.54
37710;BME280;60223;34.854;-92.408;2022-09-01T06:23:19;100701.89;;;29.72;24.22
37710;BME280;60223;34.854;-92.408;2022-09-01T06:25:45;100700.35;;;29.25;24.33
37710;BME280;60223;34.854;-92.408;2022-09-01T06:28:10;100700.15;;;29.32;24.40
37710;BME280;60223;34.854;-92.408;2022-09-01T06:30:36;100698.37;;;30.05;23.77
37710;BME280;60223;34.854;-92.408;2022-09-01T06:33:02;100692.56;;;29.90;24.03
37710;BME280;60223;34.854;-92.408;2022-09-01T06:35:28;100696.57;;;30.47;23.46
37710;BME280;60223;34.854;-92.408;2022-09-01T06:37:51;100694.99;;;30.49;23.63
37710;BME280;60223;34.854;-92.408;2022-09-01T06:40:19;100695.00;;;30.59;23.61
37710;BME280;60223;34.854;-92.408;2022-09-01T06:42:44;100693.04;;;31.22;23.20
37710;BME280;60223;34.854;-92.408;2022-09-01T06:45:10;100691.23;;;31.18;23.19
37710;BME280;60223;34.854;-92.408;2022-09-01T06:47:35;100686.46;;;31.47;22.97
37710;BME280;60223;34.854;-92.408;2022-09-01T06:50:01;100680.95;;;31.61;22.93
37710;BME280;60223;34.854;-92.408;2022-09-01T06:52:26;100675.44;;;31.53;22.96
37710;BME280;60223;34.854;-92.408;2022-09-01T06:54:52;100670.37;;;31.61;22.95
37710;BME280;60223;34.854;-92.408;2022-09-01T06:57:17;100669.06;;;31.62;23.13
37710;BME280;60223;34.854;-92.408;2022-09-01T06:59:43;100664.48;;;31.71;22.99
37710;BME280;60223;34.854;-92.408;2022-09-01T07:02:09;100659.57;;;31.48;23.19
37710;BME280;60223;34.854;-92.408;2022-09-01T07:04:31;100658.73;;;31.77;23.09
37710;BME280;60223;34.854;-92.408;2022-09-01T07:07:00;100665.54;;;31.63;23.18
37710;BME280;60223;34.854;-92.408;2022-09-01T07:09:25;100661.47;;;31.99;22.95
37710;BME280;60223;34.854;-92.408;2022-09-01T07:11:51;100666.92;;;31.32;23.54
37710;BME280;60223;34.854;-92.408;2022-09-01T07:14:16;100662.63;;;32.06;23.05
37710;BME280;60223;34.854;-92.408;2022-09-01T07:16:43;100666.44;;;31.09;23.85
37710;BME280;60223;34.854;-92.408;2022-09-01T07:19:09;100664.49;;;31.57;23.33
37710;BME280;60223;34.854;-92.408;2022-09-01T07:21:34;100666.78;;;30.33;24.15
37710;BME280;60223;34.854;-92.408;2022-09-01T07:23:58;100665.17;;;31.33;23.79
37710;BME280;60223;34.854;-92.408;2022-09-01T07:26:25;100659.69;;;32.07;23.28
37710;BME280;60223;34.854;-92.408;2022-09-01T07:28:50;100659.39;;;31.26;23.56
37710;BME280;60223;34.854;-92.408;2022-09-01T07:31:19;100650.45;;;31.39;23.56
37710;BME280;60223;34.854;-92.408;2022-09-01T07:33:42;100652.60;;;31.73;23.74
37710;BME280;60223;34.854;-92.408;2022-09-01T07:36:07;100654.07;;;31.21;23.81
37710;BME280;60223;34.854;-92.408;2022-09-01T07:38:31;100647.75;;;31.30;23.75
37710;BME280;60223;34.854;-92.408;2022-09-01T07:41:00;100646.71;;;31.71;23.71
37710;BME280;60223;34.854;-92.408;2022-09-01T07:43:25;100645.03;;;31.88;23.85
37710;BME280;60223;34.854;-92.408;2022-09-01T07:45:52;100654.16;;;31.15;24.06
37710;BME280;60223;34.854;-92.408;2022-09-01T07:48:16;100656.65;;;31.55;24.18
37710;BME280;60223;34.854;-92.408;2022-09-01T07:50:40;100655.28;;;31.48;24.30
37710;BME280;60223;34.854;-92.408;2022-09-01T07:53:07;100650.95;;;31.40;23.98
37710;BME280;60223;34.854;-92.408;2022-09-01T07:55:32;100654.54;;;31.53;23.91
37710;BME280;60223;34.854;-92.408;2022-09-01T07:57:58;100660.25;;;31.53;24.15
37710;BME280;60223;34.854;-92.408;2022-09-01T08:00:22;100659.76;;;31.76;23.98
37710;BME280;60223;34.854;-92.408;2022-09-01T08:02:46;100662.92;;;31.93;23.91
37710;BME280;60223;34.854;-92.408;2022-09-01T08:05:17;100663.65;;;31.87;23.79
37710;BME280;60223;34.854;-92.408;2022-09-01T08:07:40;100655.69;;;31.43;24.16
37710;BME280;60223;34.854;-92.408;2022-09-01T08:10:07;100653.93;;;31.65;24.23
37710;BME280;60223;34.854;-92.408;2022-09-01T08:12:32;100651.92;;;31.99;24.25
37710;BME280;60223;34.854;-92.408;2022-09-01T08:14:56;100651.07;;;31.58;24.24
37710;BME280;60223;34.854;-92.408;2022-09-01T08:17:22;100652.27;;;31.26;24.67
37710;BME280;60223;34.854;-92.408;2022-09-01T08:19:48;100649.05;;;31.37;24.69
37710;BME280;60223;34.854;-92.408;2022-09-01T08:22:14;100649.32;;;31.92;24.59
37710;BME280;60223;34.854;-92.408;2022-09-01T08:24:40;100649.96;;;31.27;24.63
37710;BME280;60223;34.854;-92.408;2022-09-01T08:27:05;100647.53;;;31.55;24.37
37710;BME280;60223;34.854;-92.408;2022-09-01T08:29:31;100650.36;;;31.34;24.56
37710;BME280;60223;34.854;-92.408;2022-09-01T08:31:54;100655.61;;;31.20;24.65
37710;BME280;60223;34.854;-92.408;2022-09-01T08:34:22;100651.92;;;31.82;24.35
37710;BME280;60223;34.854;-92.408;2022-09-01T08:36:48;100649.48;;;31.43;24.50
37710;BME280;60223;34.854;-92.408;2022-09-01T08:39:11;100651.14;;;32.25;23.98
37710;BME280;60223;34.854;-92.408;2022-09-01T08:41:44;100649.28;;;31.52;24.63
37710;BME280;60223;34.854;-92.408;2022-09-01T08:44:12;100652.73;;;32.24;23.96
37710;BME280;60223;34.854;-92.408;2022-09-01T08:46:31;100649.46;;;32.02;24.43
37710;BME280;60223;34.854;-92.408;2022-09-01T08:48:58;100649.71;;;32.04;24.28
37710;BME280;60223;34.854;-92.408;2022-09-01T08:51:26;100649.32;;;31.90;24.45
37710;BME280;60223;34.854;-92.408;2022-09-01T08:53:51;100647.05;;;31.78;24.55
37710;BME280;60223;34.854;-92.408;2022-09-01T08:56:14;100646.03;;;32.14;24.75
37710;BME280;60223;34.854;-92.408;2022-09-01T08:58:37;100645.97;;;31.66;24.79
37710;BME280;60223;34.854;-92.408;2022-09-01T09:01:07;100647.86;;;31.85;24.62
37710;BME280;60223;34.854;-92.408;2022-09-01T09:03:36;100650.28;;;31.96;24.55
37710;BME280;60223;34.854;-92.408;2022-09-01T09:06:02;100652.36;;;31.88;24.43
37710;BME280;60223;34.854;-92.408;2022-09-01T09:10:52;100650.52;;;31.75;24.77
37710;BME280;60223;34.854;-92.408;2022-09-01T09:13:14;100647.50;;;32.32;24.31
37710;BME280;60223;34.854;-92.408;2022-09-01T09:15:43;100646.59;;;32.18;24.42
37710;BME280;60223;34.854;-92.408;2022-09-01T09:18:10;100640.87;;;31.40;25.09
37710;BME280;60223;34.854;-92.408;2022-09-01T09:20:28;100643.88;;;31.16;25.13
37710;BME280;60223;34.854;-92.408;2022-09-01T09:22:55;100642.10;;;31.00;25.25
37710;BME280;60223;34.854;-92.408;2022-09-01T09:25:21;100644.52;;;31.70;24.93
37710;BME280;60223;34.854;-92.408;2022-09-01T09:27:47;100639.62;;;31.27;25.31
37710;BME280;60223;34.854;-92.408;2022-09-01T09:30:14;100641.32;;;31.82;24.83
37710;BME280;60223;34.854;-92.408;2022-09-01T09:32:48;100638.96;;;31.52;25.11
37710;BME280;60223;34.854;-92.408;2022-09-01T09:37:29;100641.60;;;31.16;25.45
37710;BME280;60223;34.854;-92.408;2022-09-01T09:40:06;100635.19;;;31.56;25.13
37710;BME280;60223;34.854;-92.408;2022-09-01T09:42:19;100638.24;;;31.90;24.88
37710;BME280;60223;34.854;-92.408;2022-09-01T09:44:47;100639.64;;;32.34;24.77
37710;BME280;60223;34.854;-92.408;2022-09-01T09:47:14;100641.02;;;32.39;24.53
37710;BME280;60223;34.854;-92.408;2022-09-01T09:49:36;100642.08;;;30.93;25.68
37710;BME280;60223;34.854;-92.408;2022-09-01T09:52:12;100642.16;;;24.45;31.66
37710;BME280;60223;34.854;-92.408;2022-09-01T09:54:29;100642.26;;;22.74;33.46
37710;BME280;60223;34.854;-92.408;2022-09-01T09:57:04;100649.25;;;24.02;31.51
37710;BME280;60223;34.854;-92.408;2022-09-01T09:59:22;100649.16;;;23.78;31.57
37710;BME280;60223;34.854;-92.408;2022-09-01T10:01:44;100649.79;;;23.67;31.27
37710;BME280;60223;34.854;-92.408;2022-09-01T10:04:09;100649.92;;;23.62;31.17
37710;BME280;60223;34.854;-92.408;2022-09-01T10:06:38;100656.48;;;21.94;32.69
37710;BME280;60223;34.854;-92.408;2022-09-01T10:09:08;100656.98;;;23.41;30.90
37710;BME280;60223;34.854;-92.408;2022-09-01T10:11:32;100655.64;;;22.62;30.98
37710;BME280;60223;34.854;-92.408;2022-09-01T10:13:51;100656.01;;;22.76;31.17
37710;BME280;60223;34.854;-92.408;2022-09-01T10:16:23;100659.99;;;22.52;30.67
37710;BME280;60223;34.854;-92.408;2022-09-01T10:18:46;100660.74;;;23.40;30.05
37710;BME280;60223;34.854;-92.408;2022-09-01T10:21:14;100660.67;;;22.52;30.90
37710;BME280;60223;34.854;-92.408;2022-09-01T10:23:36;100664.09;;;22.88;29.85
37710;BME280;60223;34.854;-92.408;2022-09-01T10:26:04;100664.80;;;24.27;30.09
37710;BME280;60223;34.854;-92.408;2022-09-01T10:28:26;100667.75;;;26.43;27.53
37710;BME280;60223;34.854;-92.408;2022-09-01T10:30:50;100669.58;;;28.59;25.22
37710;BME280;60223;34.854;-92.408;2022-09-01T10:33:19;100670.47;;;28.82;25.00
37710;BME280;60223;34.854;-92.408;2022-09-01T10:35:46;100668.72;;;29.30;25.02
37710;BME280;60223;34.854;-92.408;2022-09-01T10:38:08;100668.34;;;29.12;24.96
37710;BME280;60223;34.854;-92.408;2022-09-01T10:40:38;100671.25;;;29.06;25.03
37710;BME280;60223;34.854;-92.408;2022-09-01T10:45:33;100664.37;;;30.47;24.20
37710;BME280;60223;34.854;-92.408;2022-09-01T10:47:51;100659.35;;;29.96;24.39
37710;BME280;60223;34.854;-92.408;2022-09-01T10:50:27;100658.13;;;30.61;23.89
37710;BME280;60223;34.854;-92.408;2022-09-01T10:52:54;100663.64;;;30.75;23.77
37710;BME280;60223;34.854;-92.408;2022-09-01T10:55:12;100666.07;;;30.74;23.61
37710;BME280;60223;34.854;-92.408;2022-09-01T10:57:42;100668.33;;;30.92;23.51
37710;BME280;60223;34.854;-92.408;2022-09-01T11:02:25;100665.58;;;31.00;23.49
37710;BME280;60223;34.854;-92.408;2022-09-01T11:05:11;100665.75;;;31.44;23.40
37710;BME280;60223;34.854;-92.408;2022-09-01T11:07:29;100671.34;;;31.16;23.45
37710;BME280;60223;34.854;-92.408;2022-09-01T11:09:43;100675.04;;;31.44;23.27
37710;BME280;60223;34.854;-92.408;2022-09-01T11:12:16;100671.81;;;31.33;23.21
37710;BME280;60223;34.854;-92.408;2022-09-01T11:14:32;100671.32;;;31.35;23.22
37710;BME280;60223;34.854;-92.408;2022-09-01T11:17:10;100673.14;;;31.50;23.13
37710;BME280;60223;34.854;-92.408;2022-09-01T11:19:36;100677.24;;;31.54;23.16
37710;BME280;60223;34.854;-92.408;2022-09-01T11:26:48;100685.46;;;31.78;23.25
37710;BME280;60223;34.854;-92.408;2022-09-01T11:29:07;100686.89;;;31.80;23.10
37710;BME280;60223;34.854;-92.408;2022-09-01T11:31:38;100684.87;;;31.26;23.20
37710;BME280;60223;34.854;-92.408;2022-09-01T11:34:15;100682.86;;;30.80;23.91
37710;BME280;60223;34.854;-92.408;2022-09-01T11:36:28;100683.68;;;31.57;23.26
37710;BME280;60223;34.854;-92.408;2022-09-01T11:38:50;100687.40;;;31.79;23.36
37710;BME280;60223;34.854;-92.408;2022-09-01T11:41:20;100689.18;;;31.69;23.57
37710;BME280;60223;34.854;-92.408;2022-09-01T11:43:40;100693.93;;;30.68;24.46
37710;BME280;60223;34.854;-92.408;2022-09-01T11:46:14;100693.74;;;30.91;23.88
37710;BME280;60223;34.854;-92.408;2022-09-01T11:48:31;100692.18;;;31.49;23.61
37710;BME280;60223;34.854;-92.408;2022-09-01T11:51:01;100692.52;;;31.56;24.07
37710;BME280;60223;34.854;-92.408;2022-09-01T11:53:25;100685.17;;;32.24;23.56
37710;BME280;60223;34.854;-92.408;2022-09-01T11:55:49;100690.73;;;32.42;23.50
37710;BME280;60223;34.854;-92.408;2022-09-01T11:58:27;100695.58;;;32.12;23.78
37710;BME280;60223;34.854;-92.408;2022-09-01T12:00:41;100705.85;;;31.58;23.86
37710;BME280;60223;34.854;-92.408;2022-09-01T12:03:16;100710.60;;;31.92;23.96
37710;BME280;60223;34.854;-92.408;2022-09-01T12:05:33;100715.19;;;31.77;23.96
37710;BME280;60223;34.854;-92.408;2022-09-01T12:07:58;100714.46;;;32.07;23.74
37710;BME280;60223;34.854;-92.408;2022-09-01T12:10:23;100719.11;;;31.63;23.92
37710;BME280;60223;34.854;-92.408;2022-09-01T12:12:47;100720.46;;;31.21;24.52
37710;BME280;60223;34.854;-92.408;2022-09-01T12:15:18;100719.53;;;32.19;24.05
37710;BME280;60223;34.854;-92.408;2022-09-01T12:17:37;100720.88;;;30.88;25.07
37710;BME280;60223;34.854;-92.408;2022-09-01T12:20:19;100715.98;;;31.44;24.41
37710;BME280;60223;34.854;-92.408;2022-09-01T12:22:29;100722.53;;;30.27;29.76
37710;BME280;60223;34.854;-92.408;2022-09-01T12:24:57;100724.61;;;30.31;29.02
37710;BME280;60223;34.854;-92.408;2022-09-01T12:27:21;100728.01;;;30.57;26.92
37710;BME280;60223;34.854;-92.408;2022-09-01T12:29:47;100730.79;;;31.75;25.79
37710;BME280;60223;34.854;-92.408;2022-09-01T12:32:13;100734.20;;;31.04;26.09
37710;BME280;60223;34.854;-92.408;2022-09-01T12:34:42;100736.21;;;31.76;26.23
37710;BME280;60223;34.854;-92.408;2022-09-01T12:37:09;100741.38;;;30.56;28.35